createdAt,value
2019-06-27T00:01:17.511Z,504.30
2019-06-27T00:03:46.065Z,418.87
2019-06-27T00:06:14.651Z,463.43
2019-06-27T00:08:43.221Z,483.10
2019-06-27T00:11:11.895Z,501.80
2019-06-27T00:13:40.604Z,499.07
2019-06-27T00:16:09.265Z,535.53
2019-06-27T00:18:37.973Z,483.77
2019-06-27T00:21:06.648Z,296.13
2019-06-27T00:23:35.211Z,445.60
2019-06-27T00:26:03.805Z,534.70
2019-06-27T00:28:32.450Z,456.00
2019-06-27T00:31:01.083Z,485.37
2019-06-27T00:33:29.655Z,537.03
2019-06-27T00:35:58.263Z,504.87
2019-06-27T00:38:26.872Z,410.50
2019-06-27T00:40:55.472Z,282.43
2019-06-27T00:43:24.213Z,499.93
2019-06-27T00:45:52.800Z,125.23
2019-06-27T00:48:21.430Z,199.23
2019-06-27T00:50:49.974Z,168.40
2019-06-27T00:53:18.559Z,455.60
2019-06-27T00:55:47.167Z,240.30
2019-06-27T00:58:15.737Z,423.77
2019-06-27T01:00:44.319Z,393.07
2019-06-27T01:03:12.892Z,474.50
2019-06-27T01:05:41.464Z,366.83
2019-06-27T01:08:10.039Z,473.10
2019-06-27T01:10:39.688Z,32.80
2019-06-27T01:13:08.224Z,5.07
2019-06-27T01:15:37.838Z,296.47
2019-06-27T01:18:06.556Z,187.07
2019-06-27T01:20:35.146Z,420.90
2019-06-27T01:23:03.715Z,230.53
2019-06-27T01:25:32.296Z,187.10
2019-06-27T01:28:00.886Z,413.80
2019-06-27T01:30:30.490Z,118.80
2019-06-27T01:32:59.055Z,438.97
2019-06-27T01:35:27.666Z,420.10
2019-06-27T01:37:56.321Z,447.77
2019-06-27T01:40:24.912Z,362.87
2019-06-27T01:42:53.545Z,349.50
2019-06-27T01:45:29.951Z,423.40
2019-06-27T01:47:58.542Z,420.67
2019-06-27T01:50:27.177Z,435.03
2019-06-27T01:52:55.836Z,320.37
2019-06-27T01:55:24.591Z,363.77
2019-06-27T01:57:53.227Z,396.47
2019-06-27T02:00:22.448Z,409.40
2019-06-27T02:02:50.976Z,398.60
2019-06-27T02:05:19.721Z,393.80
2019-06-27T02:07:48.389Z,417.13
2019-06-27T02:10:18.784Z,390.90
2019-06-27T02:12:47.398Z,415.70
2019-06-27T02:15:16.798Z,359.60
2019-06-27T02:17:45.476Z,305.67
2019-06-27T02:20:14.374Z,382.23
2019-06-27T02:22:42.887Z,406.80
2019-06-27T02:25:11.981Z,406.03
2019-06-27T02:27:40.565Z,387.07
2019-06-27T02:30:09.869Z,326.47
2019-06-27T02:32:38.477Z,367.50
2019-06-27T02:35:08.290Z,394.90
2019-06-27T02:37:36.874Z,381.43
2019-06-27T02:40:08.795Z,418.40
2019-06-27T02:42:37.406Z,423.37
2019-06-27T02:45:07.810Z,365.60
2019-06-27T02:47:36.393Z,388.30
2019-06-27T02:50:07.301Z,353.67
2019-06-27T02:52:35.887Z,372.33
2019-06-27T02:55:05.304Z,373.30
2019-06-27T02:57:33.867Z,367.53
2019-06-27T03:00:02.500Z,363.97
2019-06-27T03:02:31.119Z,365.03
2019-06-27T03:04:59.656Z,369.57
2019-06-27T03:07:28.244Z,364.17
2019-06-27T03:09:56.890Z,368.07
2019-06-27T03:12:25.487Z,367.60
2019-06-27T03:14:54.062Z,194.20
2019-06-27T03:17:22.626Z,370.10
2019-06-27T03:19:51.240Z,364.67
2019-06-27T03:22:19.781Z,67.90
2019-06-27T03:24:48.378Z,112.87
2019-06-27T03:27:16.967Z,416.83
2019-06-27T03:29:45.647Z,456.83
2019-06-27T03:32:14.193Z,389.13
2019-06-27T03:34:42.826Z,471.57
2019-06-27T03:37:11.475Z,429.07
2019-06-27T03:39:40.102Z,403.87
2019-06-27T03:42:08.680Z,411.63
2019-06-27T03:44:37.276Z,396.33
2019-06-27T03:47:05.838Z,401.47
2019-06-27T03:49:34.450Z,398.97
2019-06-27T03:52:03.009Z,398.17
2019-06-27T03:54:31.663Z,406.50
2019-06-27T03:57:00.307Z,415.80
2019-06-27T03:59:28.899Z,379.60
2019-06-27T04:01:57.466Z,406.73
2019-06-27T04:04:26.051Z,387.87
2019-06-27T04:06:54.644Z,394.97
2019-06-27T04:09:23.294Z,408.10
2019-06-27T04:11:51.885Z,406.07
2019-06-27T04:14:20.493Z,383.17
2019-06-27T04:16:49.652Z,413.03
2019-06-27T04:19:18.418Z,277.03
2019-06-27T04:21:47.082Z,416.43
2019-06-27T04:24:15.781Z,464.93
2019-06-27T04:26:44.327Z,391.27
2019-06-27T04:29:32.146Z,452.97
2019-06-27T04:31:43.207Z,399.87
2019-06-27T04:34:11.799Z,422.73
2019-06-27T04:36:40.377Z,413.83
2019-06-27T04:39:08.961Z,402.53
2019-06-27T04:41:37.556Z,142.27
2019-06-27T04:44:06.129Z,423.80
2019-06-27T04:46:34.740Z,408.33
2019-06-27T04:49:03.373Z,412.83
2019-06-27T04:51:32.003Z,426.53
2019-06-27T04:54:00.544Z,417.57
2019-06-27T04:56:29.178Z,424.47
2019-06-27T04:58:57.737Z,266.57
2019-06-27T05:01:26.393Z,41.53
2019-06-27T05:03:54.997Z,15.20
2019-06-27T05:06:23.542Z,2.50
2019-06-27T05:08:52.128Z,1.93
2019-06-27T05:11:20.707Z,282.87
2019-06-27T05:13:49.298Z,280.00
2019-06-27T05:16:17.867Z,349.60
2019-06-27T05:18:46.564Z,321.13
2019-06-27T05:21:15.124Z,131.07
2019-06-27T05:23:43.726Z,164.07
2019-06-27T05:26:12.294Z,434.33
2019-06-27T05:28:40.978Z,445.23
2019-06-27T05:31:09.633Z,201.00
2019-06-27T05:33:38.192Z,67.00
2019-06-27T05:36:06.794Z,10.63
2019-06-27T05:38:35.332Z,2.60
2019-06-27T05:41:04.107Z,2.17
2019-06-27T05:43:32.667Z,2.33
2019-06-27T05:46:01.288Z,2.50
2019-06-27T05:48:29.855Z,293.40
2019-06-27T05:50:58.464Z,371.67
2019-06-27T05:53:26.999Z,508.50
2019-06-27T05:55:55.577Z,522.90
2019-06-27T05:58:24.160Z,510.00
2019-06-27T06:00:52.750Z,467.83
2019-06-27T06:03:21.300Z,413.07
2019-06-27T06:05:49.910Z,491.07
2019-06-27T06:08:18.468Z,437.57
2019-06-27T06:10:47.053Z,509.33
2019-06-27T06:13:15.619Z,515.73
2019-06-27T06:15:44.127Z,467.30
2019-06-27T06:18:12.684Z,271.40
2019-06-27T06:20:41.419Z,145.70
2019-06-27T06:23:09.994Z,133.70
2019-06-27T06:25:38.572Z,10.33
2019-06-27T06:28:07.143Z,2.13
2019-06-27T06:30:44.336Z,2.27
2019-06-27T06:33:05.987Z,3.10
2019-06-27T06:35:34.563Z,2.00
2019-06-27T06:38:03.120Z,2.77
2019-06-27T06:40:31.807Z,2.37
2019-06-27T06:43:00.818Z,2.43
2019-06-27T06:45:29.576Z,2.80
2019-06-27T06:47:58.135Z,1.73
2019-06-27T06:50:26.754Z,2.20
2019-06-27T06:52:55.294Z,1.80
2019-06-27T06:55:23.846Z,1.70
2019-06-27T06:57:52.432Z,1.67
2019-06-27T07:00:22.433Z,1.90
2019-06-27T07:02:51.006Z,1.90
2019-06-27T07:05:19.560Z,1.60
2019-06-27T07:07:48.126Z,1.40
2019-06-27T07:10:17.009Z,1.80
2019-06-27T07:12:45.647Z,1.40
2019-06-27T07:15:14.259Z,1.90
2019-06-27T07:17:42.865Z,1.50
2019-06-27T07:20:12.467Z,1.30
2019-06-27T07:22:41.055Z,1.40
2019-06-27T07:25:09.832Z,1.50
2019-06-27T07:27:38.387Z,1.85
2019-06-27T07:30:07.210Z,1.27
2019-06-27T07:32:35.925Z,1.37
2019-06-27T07:35:06.343Z,1.37
2019-06-27T07:37:34.843Z,1.50
2019-06-27T07:40:05.253Z,1.17
2019-06-27T07:42:33.791Z,1.40
2019-06-27T07:45:02.415Z,1.40
2019-06-27T07:47:30.940Z,1.72
2019-06-27T07:49:59.541Z,1.90
2019-06-27T07:52:28.082Z,1.70
2019-06-27T07:54:56.665Z,1.40
2019-06-27T07:57:25.219Z,1.30
2019-06-27T07:59:53.695Z,1.70
2019-06-27T08:02:22.290Z,1.52
2019-06-27T08:04:50.838Z,1.50
2019-06-27T08:07:21.331Z,1.40
2019-06-27T08:09:49.596Z,1.40
2019-06-27T08:12:18.153Z,1.72
2019-06-27T08:14:47.379Z,1.67
2019-06-27T08:17:15.974Z,1.40
2019-06-27T08:19:55.239Z,1.52
2019-06-27T08:22:23.827Z,1.50
2019-06-27T08:24:52.399Z,1.57
2019-06-27T08:27:20.992Z,1.55
2019-06-27T08:29:49.548Z,1.25
2019-06-27T08:32:18.126Z,1.42
2019-06-27T08:34:46.713Z,1.30
2019-06-27T08:37:15.276Z,1.50
2019-06-27T08:39:43.855Z,0.98
2019-06-27T08:42:12.431Z,1.25
2019-06-27T08:44:41.015Z,1.17
2019-06-27T08:47:09.571Z,1.20
2019-06-27T08:49:38.219Z,1.40
2019-06-27T08:52:06.883Z,1.17
2019-06-27T08:54:35.439Z,1.45
2019-06-27T08:57:04.133Z,1.10
2019-06-27T08:59:32.701Z,1.20
2019-06-27T09:02:08.594Z,1.10
2019-06-27T09:04:31.496Z,0.90
2019-06-27T09:07:00.156Z,0.98
2019-06-27T09:09:29.752Z,1.20
2019-06-27T09:11:58.424Z,1.40
2019-06-27T09:14:26.988Z,1.10
2019-06-27T09:16:55.571Z,1.12
2019-06-27T09:19:24.302Z,1.60
2019-06-27T09:21:52.883Z,1.32
2019-06-27T09:24:21.463Z,1.10
2019-06-27T09:26:50.090Z,1.05
2019-06-27T09:29:18.666Z,1.32
2019-06-27T09:31:47.284Z,1.02
2019-06-27T09:34:15.859Z,1.07
2019-06-27T09:36:46.412Z,1.52
2019-06-27T09:39:15.029Z,1.42
2019-06-27T09:41:43.608Z,471.37
2019-06-27T09:44:12.194Z,1.65
2019-06-27T09:46:40.730Z,1.72
2019-06-27T09:49:09.381Z,2.12
2019-06-27T09:51:37.952Z,1.60
2019-06-27T09:54:06.566Z,1.75
2019-06-27T09:56:35.251Z,1.30
2019-06-27T09:59:03.787Z,1.30
2019-06-27T10:01:32.362Z,1.47
2019-06-27T10:04:00.918Z,1.15
2019-06-27T10:06:29.501Z,1.50
2019-06-27T10:08:58.324Z,1.10
2019-06-27T10:11:27.025Z,1.40
2019-06-27T10:13:55.605Z,1.15
2019-06-27T10:16:24.194Z,1.00
2019-06-27T10:18:52.757Z,1.20
2019-06-27T10:21:21.357Z,1.30
2019-06-27T10:23:49.908Z,1.27
2019-06-27T10:26:18.501Z,1.40
2019-06-27T10:28:47.030Z,1.20
2019-06-27T10:31:15.593Z,1.30
2019-06-27T10:33:44.188Z,1.50
2019-06-27T10:36:12.750Z,1.85
2019-06-27T10:38:41.512Z,1.45
2019-06-27T10:41:10.138Z,1.60
2019-06-27T10:43:38.685Z,1.60
2019-06-27T10:46:07.216Z,1.35
2019-06-27T10:48:35.791Z,1.60
2019-06-27T10:51:04.368Z,1.87
2019-06-27T10:53:34.451Z,3.62
2019-06-27T10:56:03.112Z,99.30
2019-06-27T10:58:31.762Z,22.52
2019-06-27T11:01:00.381Z,340.10
2019-06-27T11:03:28.989Z,82.90
2019-06-27T11:05:57.556Z,95.03
2019-06-27T11:08:26.132Z,188.52
2019-06-27T11:10:57.365Z,29.72
2019-06-27T11:13:26.876Z,231.87
2019-06-27T11:15:55.842Z,638.40
2019-06-27T11:18:24.427Z,631.70
2019-06-27T11:20:55.343Z,653.98
2019-06-27T11:23:25.156Z,620.62
2019-06-27T11:25:53.901Z,639.17
2019-06-27T11:28:22.499Z,635.73
2019-06-27T11:30:55.774Z,589.25
2019-06-27T11:33:32.569Z,630.05
2019-06-27T11:35:56.214Z,325.95
2019-06-27T11:38:30.244Z,202.30
2019-06-27T11:41:04.699Z,277.93
2019-06-27T11:43:38.059Z,206.35
2019-06-27T11:46:10.484Z,316.45
2019-06-27T11:48:50.970Z,450.32
2019-06-27T12:55:37.323Z,48.95
2019-06-27T12:58:05.978Z,638.00
2019-06-27T13:00:34.774Z,657.00
2019-06-27T13:03:03.319Z,32.67
2019-06-27T13:05:31.977Z,630.17
2019-06-27T13:08:00.554Z,422.63
2019-06-27T13:10:35.706Z,54.90
2019-06-27T13:13:05.121Z,624.63
2019-06-27T13:15:34.061Z,127.20
2019-06-27T13:18:02.687Z,78.57
2019-06-27T13:20:31.369Z,520.98
2019-06-27T13:22:59.958Z,620.97
2019-06-27T13:25:28.648Z,632.67
2019-06-27T13:27:57.296Z,264.65
2019-06-27T13:30:25.977Z,631.93
2019-06-27T13:32:54.550Z,350.20
2019-06-27T13:35:23.153Z,32.70
2019-06-27T13:37:51.706Z,185.95
2019-06-27T13:40:20.431Z,628.97
2019-06-27T13:42:49.558Z,611.77
2019-06-27T13:45:18.346Z,461.50
2019-06-27T13:47:46.870Z,614.10
2019-06-27T13:50:15.748Z,115.40
2019-06-27T13:52:44.389Z,647.17
2019-06-27T13:55:13.119Z,627.80
2019-06-27T13:57:41.762Z,650.47
2019-06-27T14:00:10.785Z,2.60
2019-06-27T14:02:39.339Z,19.45
2019-06-27T14:05:08.342Z,628.73
2019-06-27T14:07:36.920Z,621.20
2019-06-27T14:10:07.537Z,611.70
2019-06-27T14:12:36.157Z,578.13
2019-06-27T14:15:06.625Z,621.00
2019-06-27T14:17:35.259Z,536.80
2019-06-27T14:20:05.393Z,517.63
2019-06-27T14:22:34.309Z,608.80
2019-06-27T14:25:02.907Z,35.70
2019-06-27T14:27:31.480Z,528.83
2019-06-27T14:30:00.061Z,388.30
2019-06-27T14:32:28.637Z,183.20
2019-06-27T14:35:10.729Z,165.20
2019-06-27T14:37:27.555Z,624.43
2019-06-27T14:39:56.719Z,177.90
2019-06-27T14:42:25.460Z,66.77
2019-06-27T14:44:54.103Z,504.50
2019-06-27T14:47:22.643Z,613.43
2019-06-27T14:49:51.207Z,607.57
2019-06-27T14:52:19.805Z,592.67
2019-06-27T14:54:48.642Z,404.07
2019-06-27T14:57:17.250Z,606.30
2019-06-27T14:59:45.796Z,564.00
2019-06-27T15:02:14.383Z,499.73
2019-06-27T15:04:42.956Z,598.90
2019-06-27T15:07:11.532Z,441.40
2019-06-27T15:09:40.021Z,579.10
2019-06-27T15:12:08.596Z,263.77
2019-06-27T15:14:37.096Z,68.37
2019-06-27T15:17:05.668Z,1.57
2019-06-27T15:19:34.236Z,524.97
2019-06-27T15:22:02.823Z,559.90
2019-06-27T15:24:31.414Z,421.60
2019-06-27T15:26:59.966Z,219.43
2019-06-27T15:29:28.531Z,590.17
2019-06-27T15:31:57.184Z,1.57
2019-06-27T15:34:25.753Z,148.90
2019-06-27T15:36:54.337Z,48.87
2019-06-27T15:39:22.898Z,1.50
2019-06-27T15:41:51.510Z,536.60
2019-06-27T15:44:20.823Z,546.03
2019-06-27T15:46:49.474Z,525.63
2019-06-27T15:49:18.038Z,421.73
2019-06-27T15:51:46.668Z,243.77
2019-06-27T15:54:15.278Z,368.90
2019-06-27T15:56:43.830Z,346.90
2019-06-27T15:59:12.433Z,294.83
2019-06-27T16:01:41.009Z,499.67
2019-06-27T16:04:09.611Z,484.73
2019-06-27T16:06:38.172Z,477.63
2019-06-27T16:09:07.132Z,477.97
2019-06-27T16:11:35.716Z,483.80
2019-06-27T16:14:04.361Z,478.83
2019-06-27T16:16:32.914Z,4.17
2019-06-27T16:19:01.502Z,483.50
2019-06-27T16:21:30.176Z,318.63
2019-06-27T16:23:58.829Z,224.10
2019-06-27T16:26:27.411Z,470.87
2019-06-27T16:28:55.954Z,8.83
2019-06-27T16:31:24.621Z,454.27
2019-06-27T16:33:53.175Z,458.33
2019-06-27T16:36:25.874Z,459.43
2019-06-27T16:38:51.981Z,453.73
2019-06-27T16:41:20.666Z,22.77
2019-06-27T16:43:49.267Z,435.70
2019-06-27T16:46:17.867Z,456.20
2019-06-27T16:48:46.436Z,449.83
2019-06-27T16:51:14.934Z,463.23
2019-06-27T16:53:43.458Z,455.83
2019-06-27T16:56:12.024Z,461.83
2019-06-27T16:58:40.616Z,461.07
2019-06-27T17:01:09.188Z,503.53
2019-06-27T17:03:37.767Z,464.97
2019-06-27T17:06:06.407Z,320.07
2019-06-27T17:08:34.993Z,1.60
2019-06-27T17:11:03.557Z,14.83
2019-06-27T17:13:32.181Z,430.70
2019-06-27T17:16:00.752Z,288.37
2019-06-27T17:18:29.413Z,166.27
2019-06-27T17:20:58.025Z,338.37
2019-06-27T17:23:26.668Z,145.03
2019-06-27T17:25:56.472Z,480.83
2019-06-27T17:28:25.135Z,464.50
2019-06-27T17:30:53.684Z,469.83
2019-06-27T17:33:22.189Z,462.40
2019-06-27T17:35:50.755Z,2.83
2019-06-27T17:38:19.321Z,480.03
2019-06-27T17:40:47.911Z,102.97
2019-06-27T17:43:16.487Z,456.73
2019-06-27T17:45:45.129Z,441.57
2019-06-27T17:48:13.706Z,456.20
2019-06-27T17:50:42.283Z,4.00
2019-06-27T17:53:10.859Z,463.23
2019-06-27T17:55:39.474Z,463.13
2019-06-27T17:58:08.015Z,549.47
2019-06-27T18:00:36.679Z,692.73
2019-06-27T18:03:05.316Z,456.23
2019-06-27T18:05:33.882Z,219.47
2019-06-27T18:08:02.455Z,480.77
2019-06-27T18:10:31.022Z,251.47
2019-06-27T18:12:59.589Z,484.60
2019-06-27T18:15:28.169Z,489.57
2019-06-27T18:17:56.720Z,528.10
2019-06-27T18:20:25.260Z,2.93
2019-06-27T18:22:53.831Z,615.30
2019-06-27T18:25:22.438Z,485.00
2019-06-27T18:27:51.166Z,489.80
2019-06-27T18:30:19.982Z,126.40
2019-06-27T18:32:48.807Z,547.23
2019-06-27T18:35:17.530Z,475.97
2019-06-27T18:37:46.100Z,430.43
2019-06-27T18:40:14.925Z,6.27
2019-06-27T18:42:43.464Z,460.43
2019-06-27T18:45:12.888Z,468.93
2019-06-27T18:47:41.453Z,230.63
2019-06-27T18:50:10.378Z,5.50
2019-06-27T18:52:38.940Z,458.73
2019-06-27T18:55:07.652Z,448.07
2019-06-27T18:57:36.268Z,462.07
2019-06-27T19:00:07.236Z,455.13
2019-06-27T19:02:35.796Z,473.77
2019-06-27T19:05:05.809Z,446.73
2019-06-27T19:07:44.872Z,466.93
2019-06-27T19:10:08.956Z,59.43
2019-06-27T19:12:37.602Z,477.57
2019-06-27T19:15:07.618Z,470.87
2019-06-27T19:17:36.192Z,471.20
2019-06-27T19:20:08.443Z,452.17
2019-06-27T19:22:54.372Z,460.50
2019-06-27T19:25:24.498Z,452.50
2019-06-27T19:27:53.026Z,463.17
2019-06-27T19:30:21.602Z,438.90
2019-06-27T19:32:50.178Z,344.87
2019-06-27T19:35:18.748Z,294.47
2019-06-27T19:38:00.936Z,182.30
2019-06-27T19:40:17.710Z,356.70
2019-06-27T19:42:46.362Z,305.00
2019-06-27T19:45:16.454Z,405.33
2019-06-27T19:47:45.035Z,457.73
2019-06-27T19:50:13.757Z,461.27
2019-06-27T19:52:42.330Z,459.90
2019-06-27T19:55:11.337Z,455.57
2019-06-27T19:57:39.957Z,437.03
2019-06-27T20:00:08.856Z,452.87
2019-06-27T20:02:37.432Z,455.67
2019-06-27T20:05:07.134Z,448.67
2019-06-27T20:07:35.772Z,447.90
2019-06-27T20:10:07.527Z,463.17
2019-06-27T20:12:36.101Z,456.17
2019-06-27T20:15:05.320Z,447.50
2019-06-27T20:17:33.886Z,443.43
2019-06-27T20:20:02.472Z,443.27
2019-06-27T20:22:31.056Z,443.73
2019-06-27T20:24:59.652Z,433.37
2019-06-27T20:27:28.252Z,440.67
2019-06-27T20:29:57.678Z,443.67
2019-06-27T20:32:26.258Z,434.13
2019-06-27T20:34:54.828Z,437.87
2019-06-27T20:37:26.065Z,426.47
2019-06-27T20:39:53.643Z,424.00
2019-06-27T20:42:22.276Z,432.53
2019-06-27T20:44:50.838Z,178.20
2019-06-27T20:47:19.449Z,419.80
2019-06-27T20:49:48.014Z,417.37
2019-06-27T20:52:16.596Z,379.80
2019-06-27T20:54:45.170Z,384.00
2019-06-27T20:57:13.802Z,299.13
2019-06-27T20:59:42.370Z,246.43
2019-06-27T21:02:10.951Z,156.67
2019-06-27T21:04:39.526Z,3.53
2019-06-27T21:07:09.968Z,36.20
2019-06-27T21:09:38.433Z,100.47
2019-06-27T21:12:07.055Z,41.93
2019-06-27T21:14:35.619Z,9.67
2019-06-27T21:17:04.324Z,93.63
2019-06-27T21:19:32.885Z,10.83
2019-06-27T21:22:01.383Z,1.80
2019-06-27T21:24:29.950Z,1.50
2019-06-27T21:26:58.677Z,2.10
2019-06-27T21:29:27.245Z,1.70
2019-06-27T21:31:55.859Z,1.80
2019-06-27T21:34:24.430Z,1.53
2019-06-27T21:36:53.050Z,1.50
2019-06-27T21:39:21.611Z,1.67
2019-06-27T21:41:50.296Z,1.50
2019-06-27T21:44:18.879Z,1.30
2019-06-27T21:46:47.420Z,1.53
2019-06-27T21:49:15.917Z,1.43
2019-06-27T21:51:44.719Z,1.27
2019-06-27T21:54:13.249Z,1.30
2019-06-27T21:56:41.803Z,1.20
2019-06-27T21:59:10.344Z,1.33
2019-06-27T22:01:39.046Z,1.40
2019-06-27T22:04:07.744Z,1.20
2019-06-27T22:06:36.303Z,1.17
2019-06-27T22:09:20.027Z,0.90
2019-06-27T22:11:37.527Z,0.80
2019-06-27T22:14:06.262Z,1.13
2019-06-27T22:16:34.926Z,1.27
2019-06-27T22:19:03.705Z,0.90
2019-06-27T22:21:32.243Z,1.10
2019-06-27T22:24:00.749Z,1.13
2019-06-27T22:26:29.317Z,0.80
2019-06-27T22:28:57.854Z,1.03
2019-06-27T22:31:26.486Z,0.83
2019-06-27T22:33:55.035Z,0.73
2019-06-27T22:36:23.675Z,0.90
2019-06-27T22:39:09.634Z,0.90
2019-06-27T22:41:56.065Z,0.80
2019-06-27T22:44:42.251Z,0.87
2019-06-27T22:47:28.433Z,1.10
2019-06-27T22:49:56.323Z,0.90
2019-06-27T22:52:31.975Z,1.10
2019-06-27T22:55:02.169Z,0.87
2019-06-27T22:57:30.798Z,1.30
2019-06-27T22:59:59.348Z,1.27
2019-06-27T23:02:27.850Z,1.00
2019-06-27T23:04:56.392Z,1.40
2019-06-27T23:07:24.961Z,1.00
2019-06-27T23:09:57.293Z,0.90
2019-06-27T23:12:23.791Z,1.17
2019-06-27T23:14:52.300Z,1.10
2019-06-27T23:17:20.842Z,1.23
2019-06-27T23:19:49.385Z,1.10
2019-06-27T23:22:17.953Z,1.00
2019-06-27T23:24:46.488Z,1.40
2019-06-27T23:27:15.045Z,1.50
2019-06-27T23:29:43.609Z,6.03
2019-06-27T23:32:12.170Z,23.47
2019-06-27T23:34:40.766Z,60.23
2019-06-27T23:37:09.373Z,1.97
2019-06-27T23:39:37.870Z,38.43
2019-06-27T23:42:06.368Z,140.17
2019-06-27T23:44:34.936Z,177.33
2019-06-27T23:47:03.519Z,283.20
2019-06-27T23:49:32.110Z,329.77
2019-06-27T23:52:00.792Z,339.87
2019-06-27T23:54:29.366Z,344.37
2019-06-27T23:56:57.957Z,349.33
2019-06-27T23:59:26.507Z,352.87
